Time;durP1;ratioP1;P1;durP2;ratioP2;P2;SDS_P1;SDS_P2;PMS_P1;PMS_P2;Temp;Humidity;BMP_temperature;BMP_pressure;BME280_temperature;BME280_humidity;BME280_pressure;Samples;Min_cycle;Max_cycle;Signal;HPM_P1;HPM_P2
2023/09/29 00:00:34;;;;;;;16.30;2.72;;;;;;;14.44;59.76;96747.63;5134357;27;20492;-61
2023/09/29 00:03:03;;;;;;;5.90;2.40;;;;;;;14.44;60.22;96742.34;5134183;27;20052;-61
2023/09/29 00:05:30;;;;;;;8.25;2.58;;;;;;;14.43;60.59;96740.66;5134524;27;20050;-61
2023/09/29 00:07:57;;;;;;;8.55;2.60;;;;;;;14.35;60.78;96732.28;5134431;27;20047;-61
2023/09/29 00:10:25;;;;;;;10.35;2.45;;;;;;;14.37;61.33;96743.59;5134134;27;20047;-61
2023/09/29 00:12:53;;;;;;;10.48;2.72;;;;;;;14.36;61.50;96732.22;5134198;27;20087;-61
2023/09/29 00:15:21;;;;;;;14.13;2.63;;;;;;;14.32;60.51;96743.81;5134367;27;20055;-61
2023/09/29 00:17:49;;;;;;;11.52;2.63;;;;;;;14.35;59.72;96734.91;5134209;27;20053;-61
2023/09/29 00:20:22;;;;;;;9.93;2.38;;;;;;;14.34;59.69;96723.56;5134124;27;20062;-61
2023/09/29 00:22:49;;;;;;;5.55;2.53;;;;;;;14.30;59.54;96726.41;5134176;27;20054;-61
2023/09/29 00:25:16;;;;;;;6.10;2.30;;;;;;;14.27;59.47;96735.31;5134187;27;20047;-61
2023/09/29 00:27:44;;;;;;;12.30;2.28;;;;;;;14.34;59.93;96733.22;5134045;27;20142;-62
2023/09/29 00:30:12;;;;;;;11.23;2.85;;;;;;;14.40;59.93;96738.19;5134222;27;20039;-61
2023/09/29 00:32:45;;;;;;;8.52;2.78;;;;;;;14.39;60.11;96737.31;5134021;27;20043;-62
2023/09/29 00:35:17;;;;;;;12.88;2.60;;;;;;;14.43;60.11;96731.91;5133989;27;20054;-61
2023/09/29 00:37:46;;;;;;;8.23;2.53;;;;;;;14.44;60.10;96729.19;5134005;28;20053;-62
2023/09/29 00:40:14;;;;;;;9.02;2.30;;;;;;;14.44;59.81;96733.59;5134006;27;20062;-62
2023/09/29 00:42:44;;;;;;;16.48;2.70;;;;;;;14.38;60.31;96734.75;5133973;28;20548;-61
2023/09/29 00:45:15;;;;;;;13.82;2.53;;;;;;;14.34;60.35;96726.19;5134015;28;20093;-61
2023/09/29 00:47:45;;;;;;;7.82;2.83;;;;;;;14.31;60.41;96721.06;5134014;28;20112;-62
2023/09/29 00:50:14;;;;;;;5.47;2.42;;;;;;;14.24;60.62;96725.78;5134014;28;20039;-62
2023/09/29 00:52:43;;;;;;;8.85;2.70;;;;;;;14.25;60.41;96726.66;5133854;28;20044;-62
2023/09/29 00:55:15;;;;;;;15.68;2.78;;;;;;;14.21;60.41;96720.66;5133913;28;20126;-61
2023/09/29 00:57:44;;;;;;;7.30;2.60;;;;;;;14.16;60.60;96714.81;5133811;28;20086;-61
2023/09/29 01:00:15;;;;;;;9.38;2.45;;;;;;;14.14;60.50;96709.63;5133800;28;20047;-62
2023/09/29 01:02:43;;;;;;;8.73;2.53;;;;;;;14.09;60.68;96722.13;5133528;27;20054;-61
2023/09/29 01:05:12;;;;;;;9.50;3.10;;;;;;;14.04;60.76;96713.63;5133767;28;20465;-61
2023/09/29 01:07:41;;;;;;;9.68;2.40;;;;;;;14.03;61.08;96717.19;5133840;28;20043;-61
2023/09/29 01:10:09;;;;;;;7.00;2.60;;;;;;;14.01;60.67;96714.66;5133722;28;20047;-61
2023/09/29 01:12:37;;;;;;;8.50;2.60;;;;;;;13.97;61.04;96717.50;5133836;28;20047;-61
2023/09/29 01:15:06;;;;;;;14.43;3.10;;;;;;;13.90;61.37;96717.78;5133697;27;20078;-61
2023/09/29 01:17:33;;;;;;;8.13;2.40;;;;;;;13.84;61.39;96715.44;5133621;27;20082;-61
2023/09/29 01:20:00;;;;;;;8.70;2.83;;;;;;;13.83;61.37;96715.53;5133721;28;20055;-62
2023/09/29 01:22:30;;;;;;;13.55;2.80;;;;;;;13.79;61.47;96712.22;5133599;28;20043;-61
2023/09/29 01:25:02;;;;;;;7.25;2.90;;;;;;;13.75;59.90;96708.00;5134485;27;20104;-62
2023/09/29 01:27:29;;;;;;;5.97;2.28;;;;;;;13.69;61.19;96711.78;5137691;27;20130;-61
2023/09/29 01:29:55;;;;;;;6.25;2.30;;;;;;;13.67;61.42;96718.91;5137568;27;20051;-61
2023/09/29 01:32:22;;;;;;;6.20;2.25;;;;;;;13.67;61.50;96718.03;5137374;27;20057;-61
2023/09/29 01:34:50;;;;;;;6.28;2.38;;;;;;;13.61;61.41;96711.31;5137280;27;20054;-62
2023/09/29 01:37:18;;;;;;;4.32;2.33;;;;;;;13.51;61.63;96713.50;5137293;27;20126;-61
2023/09/29 01:39:45;;;;;;;10.05;2.47;;;;;;;13.48;61.52;96713.63;5137108;27;20055;-61
2023/09/29 01:42:13;;;;;;;9.48;2.70;;;;;;;13.47;61.89;96707.53;5137161;27;20043;-62
2023/09/29 01:44:40;;;;;;;11.02;2.78;;;;;;;13.39;61.72;96707.88;5137120;27;20047;-62
2023/09/29 01:47:08;;;;;;;7.25;2.47;;;;;;;13.32;62.17;96703.84;5137150;27;20086;-62
2023/09/29 01:49:35;;;;;;;8.02;2.47;;;;;;;13.31;62.63;96703.91;5137112;27;20068;-61
2023/09/29 01:52:02;;;;;;;10.15;3.00;;;;;;;13.24;62.66;96700.69;5137285;27;20129;-61
2023/09/29 01:54:29;;;;;;;4.75;2.33;;;;;;;13.15;61.25;96699.34;5136906;27;20043;-61
2023/09/29 01:56:56;;;;;;;9.82;2.65;;;;;;;13.17;62.07;96702.78;5136849;27;20051;-62
2023/09/29 01:59:24;;;;;;;13.35;3.33;;;;;;;13.20;62.63;96696.53;5136876;27;20099;-62
2023/09/29 02:01:51;;;;;;;11.95;2.85;;;;;;;13.20;62.77;96699.16;5136647;27;20104;-61
2023/09/29 02:04:18;;;;;;;16.45;2.72;;;;;;;13.17;63.03;96696.66;5136814;27;20083;-61
2023/09/29 02:06:45;;;;;;;12.60;3.13;;;;;;;13.18;63.27;96704.47;5136924;27;20047;-61
2023/09/29 02:09:12;;;;;;;12.77;3.10;;;;;;;13.16;62.63;96700.22;5136744;27;20047;-62
2023/09/29 02:11:41;;;;;;;10.70;2.45;;;;;;;13.12;63.26;96692.47;5136675;27;20126;-62
2023/09/29 02:14:08;;;;;;;5.20;2.47;;;;;;;13.13;63.27;96695.97;5136596;27;20050;-61
2023/09/29 02:16:37;;;;;;;9.25;2.83;;;;;;;13.06;63.03;96699.78;5136669;27;20043;-61
2023/09/29 02:19:05;;;;;;;9.55;2.83;;;;;;;12.98;62.92;96692.25;5136596;27;20051;-61
2023/09/29 02:21:36;;;;;;;4.97;2.58;;;;;;;12.89;62.83;96693.53;5136457;27;20054;-62
2023/09/29 02:24:03;;;;;;;7.03;2.50;;;;;;;12.83;63.34;96691.19;5136332;27;20121;-62
2023/09/29 02:26:30;;;;;;;16.95;2.85;;;;;;;12.83;63.24;96686.78;5136403;27;20507;-61
2023/09/29 02:28:57;;;;;;;10.50;2.67;;;;;;;12.82;62.37;96682.44;5136342;27;20047;-61
2023/09/29 02:31:26;;;;;;;15.30;2.40;;;;;;;12.99;58.61;96686.06;5136400;27;20043;-61
2023/09/29 02:33:55;;;;;;;9.23;2.35;;;;;;;13.46;56.63;96692.66;5136210;27;20055;-61
2023/09/29 02:36:21;;;;;;;9.88;2.28;;;;;;;13.86;54.89;96695.22;5135995;27;20039;-61
2023/09/29 02:38:49;;;;;;;12.07;2.30;;;;;;;14.13;53.58;96694.78;5135909;27;20096;-61
2023/09/29 02:41:16;;;;;;;9.73;2.05;;;;;;;14.46;53.15;96702.81;5135871;27;20100;-61
2023/09/29 02:43:43;;;;;;;4.93;2.10;;;;;;;14.74;51.64;96707.50;5136006;27;20104;-61
2023/09/29 02:46:15;;;;;;;13.57;2.38;;;;;;;14.98;50.91;96704.53;5136050;27;20096;-61
2023/09/29 02:48:42;;;;;;;18.13;3.15;;;;;;;15.25;50.15;96705.75;5135908;27;20043;-61
2023/09/29 02:51:17;;;;;;;7.85;2.80;;;;;;;15.48;49.36;96712.41;5135986;27;20074;-61
2023/09/29 02:53:44;;;;;;;18.90;2.35;;;;;;;15.63;49.13;96704.59;5135846;27;20051;-61
2023/09/29 02:56:11;;;;;;;13.40;2.58;;;;;;;15.76;48.29;96708.22;5135778;27;20046;-62
2023/09/29 02:58:39;;;;;;;6.70;2.38;;;;;;;15.80;49.12;96706.25;5135814;27;20047;-61
2023/09/29 03:01:11;;;;;;;14.55;2.53;;;;;;;15.82;48.64;96707.03;5135613;27;20047;-61
2023/09/29 03:03:43;;;;;;;10.38;2.25;;;;;;;15.80;49.06;96703.63;5135448;27;20059;-61
2023/09/29 03:06:12;;;;;;;10.55;2.75;;;;;;;15.77;48.94;96707.28;5135662;27;20055;-62
2023/09/29 03:08:41;;;;;;;9.38;2.75;;;;;;;15.70;49.37;96702.44;5135648;27;20059;-61
2023/09/29 03:11:09;;;;;;;21.75;2.92;;;;;;;15.71;49.02;96706.78;5135441;27;20054;-61
2023/09/29 03:13:39;;;;;;;11.98;2.58;;;;;;;15.55;49.25;96710.28;5135374;27;20049;-61
2023/09/29 03:16:07;;;;;;;11.18;3.03;;;;;;;15.47;49.81;96702.78;5135390;27;20039;-61
2023/09/29 03:18:35;;;;;;;8.23;2.63;;;;;;;15.44;49.46;96699.47;5135277;27;20054;-61
2023/09/29 03:21:04;;;;;;;11.35;2.90;;;;;;;15.43;50.20;96703.03;5135231;27;20069;-61
2023/09/29 03:23:34;;;;;;;8.45;2.83;;;;;;;15.35;51.01;96708.75;5135243;27;20222;-61
2023/09/29 03:26:03;;;;;;;6.60;2.45;;;;;;;15.22;51.15;96703.28;5135136;27;20058;-61
2023/09/29 03:28:30;;;;;;;17.05;2.40;;;;;;;15.16;51.39;96700.06;5135158;27;20081;-61
2023/09/29 03:30:58;;;;;;;9.88;2.90;;;;;;;15.08;51.40;96698.78;5135054;27;20047;-61
2023/09/29 03:33:25;;;;;;;12.30;2.45;;;;;;;15.00;51.78;96704.44;5135089;27;20382;-62
2023/09/29 03:35:56;;;;;;;14.82;2.38;;;;;;;14.90;52.41;96707.56;5134992;27;20096;-62
2023/09/29 03:38:25;;;;;;;9.73;2.17;;;;;;;14.81;53.01;96694.03;5134964;27;20412;-61
2023/09/29 03:40:53;;;;;;;15.35;2.53;;;;;;;14.64;53.48;96698.38;5134831;27;20055;-61
2023/09/29 03:43:22;;;;;;;11.30;2.78;;;;;;;14.58;54.06;96696.91;5134810;27;20079;-61
2023/09/29 03:45:50;;;;;;;11.77;2.60;;;;;;;14.53;55.02;96694.53;5134794;27;20057;-61
2023/09/29 03:48:17;;;;;;;3.92;2.50;;;;;;;14.45;55.87;96695.84;5134353;27;20130;-61
2023/09/29 03:50:44;;;;;;;9.38;2.20;;;;;;;14.27;55.43;96703.75;5134882;27;20046;-61
2023/09/29 03:53:12;;;;;;;15.63;2.65;;;;;;;14.21;56.07;96699.63;5134780;27;20039;-61
2023/09/29 03:55:39;;;;;;;8.57;2.03;;;;;;;14.17;56.77;96699.88;5134667;27;20086;-61
2023/09/29 03:58:06;;;;;;;12.27;2.67;;;;;;;14.04;56.94;96700.47;5134676;27;20047;-61
2023/09/29 04:00:35;;;;;;;7.38;2.13;;;;;;;14.03;56.57;96697.00;5134460;27;20043;-61
2023/09/29 04:03:02;;;;;;;5.90;2.53;;;;;;;13.98;57.28;96699.00;5134370;27;20505;-61
2023/09/29 04:05:29;;;;;;;11.80;2.70;;;;;;;13.91;57.68;96700.25;5134461;27;20079;-61
2023/09/29 04:07:56;;;;;;;11.48;2.92;;;;;;;13.84;57.52;96701.44;5134448;27;20488;-61
2023/09/29 04:10:23;;;;;;;8.13;2.47;;;;;;;13.79;58.11;96693.81;5134526;27;20054;-61
2023/09/29 04:12:51;;;;;;;6.90;2.65;;;;;;;13.72;57.66;96692.38;5134321;27;20051;-61
2023/09/29 04:15:18;;;;;;;15.50;2.20;;;;;;;13.61;56.92;96688.50;5134367;27;20047;-61
2023/09/29 04:17:47;;;;;;;8.65;2.55;;;;;;;13.42;56.99;96664.00;5134345;27;20129;-61
2023/09/29 04:20:15;;;;;;;19.63;2.78;;;;;;;13.49;57.27;96676.78;5134153;27;20047;-61
2023/09/29 04:22:43;;;;;;;11.13;2.75;;;;;;;13.58;55.35;96686.00;5134189;27;20116;-61
2023/09/29 04:25:12;;;;;;;14.63;2.47;;;;;;;13.67;55.87;96679.47;5134258;27;20043;-61
2023/09/29 04:27:40;;;;;;;14.95;2.38;;;;;;;13.71;56.23;96688.06;5134098;27;20404;-61
2023/09/29 04:30:08;;;;;;;10.45;2.38;;;;;;;13.71;56.59;96691.53;5134041;27;20043;-61
2023/09/29 04:32:37;;;;;;;7.47;2.08;;;;;;;13.66;57.18;96685.63;5134144;27;20054;-61
2023/09/29 04:35:10;;;;;;;5.38;2.30;;;;;;;13.72;56.91;96674.84;5134071;27;20053;-61
2023/09/29 04:37:38;;;;;;;7.00;2.50;;;;;;;13.80;57.95;96682.34;5134141;27;20043;-61
2023/09/29 04:40:07;;;;;;;9.02;2.38;;;;;;;13.85;56.86;96682.97;5134027;28;20408;-61
2023/09/29 04:42:35;;;;;;;6.88;2.45;;;;;;;13.98;55.65;96696.38;5134113;28;20146;-61
2023/09/29 04:45:03;;;;;;;8.25;2.85;;;;;;;14.20;54.92;96692.66;5133911;28;20567;-61
2023/09/29 04:47:30;;;;;;;10.38;2.38;;;;;;;14.33;54.67;96695.53;5133932;28;20047;-61
2023/09/29 04:49:57;;;;;;;10.68;2.08;;;;;;;14.48;54.10;96693.88;5133907;28;20127;-61
2023/09/29 04:52:26;;;;;;;16.98;3.05;;;;;;;14.51;54.67;96696.38;5133929;28;20051;-61
2023/09/29 04:54:54;;;;;;;10.60;2.58;;;;;;;14.68;54.27;96692.00;5133957;28;20086;-61
2023/09/29 04:57:21;;;;;;;8.57;2.30;;;;;;;14.95;55.68;96701.19;5133955;28;20039;-61
2023/09/29 04:59:48;;;;;;;13.88;2.53;;;;;;;15.48;53.14;96704.50;5134475;27;20057;-61
2023/09/29 05:02:16;;;;;;;10.00;2.55;;;;;;;16.13;50.80;96718.50;5137708;27;20059;-61
2023/09/29 05:04:43;;;;;;;11.95;2.75;;;;;;;16.96;50.87;96708.38;5137901;27;20546;-62
2023/09/29 05:07:11;;;;;;;9.23;2.60;;;;;;;17.91;48.71;96710.41;5138089;27;20118;-61
2023/09/29 05:09:40;;;;;;;9.65;3.17;;;;;;;18.64;46.57;96720.69;5137874;27;20050;-61
2023/09/29 05:12:07;;;;;;;9.40;2.53;;;;;;;19.41;44.72;96713.66;5137841;27;20050;-61
2023/09/29 05:14:34;;;;;;;6.50;2.20;;;;;;;20.19;42.56;96717.84;5137660;27;20579;-61
2023/09/29 05:17:02;;;;;;;12.93;2.63;;;;;;;21.06;42.06;96723.78;5137745;27;20039;-61
2023/09/29 05:19:29;;;;;;;11.15;2.55;;;;;;;21.84;42.47;96721.19;5137659;27;20047;-62
2023/09/29 05:21:56;;;;;;;8.43;2.42;;;;;;;22.54;40.49;96725.28;5137604;27;20043;-62
2023/09/29 05:24:23;;;;;;;9.93;2.42;;;;;;;23.30;39.28;96709.19;5137554;27;20039;-62
2023/09/29 05:26:51;;;;;;;12.68;2.97;;;;;;;23.84;37.04;96712.44;5137402;27;20481;-62
2023/09/29 05:29:18;;;;;;;11.57;2.67;;;;;;;24.54;35.26;96717.84;5137472;27;20100;-62
2023/09/29 05:31:46;;;;;;;10.65;2.95;;;;;;;24.98;31.58;96720.03;5137423;27;20043;-62
2023/09/29 05:34:13;;;;;;;18.52;4.25;;;;;;;25.28;31.62;96709.25;5137426;27;20051;-62
2023/09/29 05:36:40;;;;;;;13.85;3.40;;;;;;;26.04;30.21;96715.34;5137306;27;20047;-62
2023/09/29 05:39:07;;;;;;;9.93;2.95;;;;;;;26.83;28.64;96709.31;5137171;27;20454;-62
2023/09/29 05:41:34;;;;;;;7.78;3.42;;;;;;;27.54;27.26;96707.53;5137130;27;20051;-62
2023/09/29 05:44:03;;;;;;;14.32;3.75;;;;;;;27.31;26.43;96718.84;5137148;27;20047;-62
2023/09/29 05:46:30;;;;;;;11.70;3.38;;;;;;;27.58;26.39;96720.47;5137259;27;20050;-63
2023/09/29 05:48:57;;;;;;;16.40;3.60;;;;;;;27.75;25.59;96712.47;5137226;27;20126;-62
2023/09/29 05:51:24;;;;;;;8.73;3.28;;;;;;;27.95;27.39;96701.47;5137029;27;20098;-62
2023/09/29 05:53:51;;;;;;;11.98;4.30;;;;;;;28.29;25.20;96710.44;5136983;27;20051;-62
2023/09/29 05:56:18;;;;;;;15.98;4.40;;;;;;;28.65;24.94;96709.28;5137014;27;20043;-62
2023/09/29 05:58:45;;;;;;;15.32;3.85;;;;;;;29.12;23.20;96713.94;5137017;27;20051;-62
2023/09/29 06:01:16;;;;;;;10.45;3.80;;;;;;;29.29;23.67;96716.59;5136741;27;20527;-62
2023/09/29 06:03:44;;;;;;;10.85;3.80;;;;;;;29.46;22.83;96713.81;5136720;27;20540;-62
2023/09/29 06:06:11;;;;;;;12.98;3.67;;;;;;;29.61;22.27;96712.13;5136797;27;20039;-62
2023/09/29 06:08:39;;;;;;;19.25;4.57;;;;;;;30.21;23.34;96708.94;5136636;27;20511;-62
2023/09/29 06:11:07;;;;;;;10.55;4.28;;;;;;;30.27;22.06;96721.72;5136190;27;20055;-63
2023/09/29 06:13:34;;;;;;;15.00;3.95;;;;;;;30.53;22.02;96725.06;5136624;27;20090;-62
2023/09/29 06:16:03;;;;;;;20.92;4.80;;;;;;;30.95;22.38;96725.56;5136663;27;20104;-62
2023/09/29 06:18:32;;;;;;;17.13;4.33;;;;;;;31.43;20.34;96731.69;5136671;27;20047;-62
2023/09/29 06:21:00;;;;;;;17.50;4.38;;;;;;;31.77;21.08;96728.38;5136394;27;20043;-62
2023/09/29 06:23:27;;;;;;;14.07;4.20;;;;;;;32.29;20.48;96732.91;5136479;27;20047;-62
2023/09/29 06:25:58;;;;;;;20.92;5.32;;;;;;;31.43;19.61;96727.13;5136400;27;20058;-62
2023/09/29 06:28:25;;;;;;;13.27;4.40;;;;;;;31.21;20.65;96736.97;5136362;27;20043;-62
2023/09/29 06:30:53;;;;;;;16.52;4.32;;;;;;;31.09;20.25;96744.69;5136352;27;20047;-62
2023/09/29 06:33:20;;;;;;;12.63;4.72;;;;;;;30.76;20.29;96735.84;5136243;27;20461;-62
2023/09/29 06:35:49;;;;;;;19.85;4.53;;;;;;;30.20;20.61;96738.78;5136090;27;20054;-62
2023/09/29 06:38:16;;;;;;;12.98;4.70;;;;;;;29.08;22.44;96750.28;5136203;27;20074;-62
2023/09/29 06:40:44;;;;;;;15.05;5.47;;;;;;;28.01;23.74;96749.19;5136080;27;20075;-61
2023/09/29 06:43:11;;;;;;;23.13;5.47;;;;;;;27.69;25.39;96740.03;5135991;27;20100;-62
2023/09/29 06:45:38;;;;;;;14.43;4.90;;;;;;;27.35;24.39;96747.03;5135875;27;20043;-62
2023/09/29 06:48:06;;;;;;;8.60;5.00;;;;;;;26.90;25.44;96749.75;5135914;27;20130;-62
2023/09/29 06:50:33;;;;;;;9.75;4.43;;;;;;;27.00;26.12;96750.53;5135904;27;20050;-62
2023/09/29 06:53:03;;;;;;;15.00;5.10;;;;;;;26.77;26.22;96752.00;5135756;27;20050;-62
2023/09/29 06:55:31;;;;;;;8.15;4.22;;;;;;;26.28;25.71;96743.38;5135728;27;20050;-62
2023/09/29 06:57:59;;;;;;;21.30;5.47;;;;;;;26.08;27.01;96737.31;5135748;27;20481;-62
2023/09/29 07:00:26;;;;;;;12.48;4.20;;;;;;;25.65;27.07;96742.34;5135629;27;20047;-62
2023/09/29 07:02:53;;;;;;;8.60;4.32;;;;;;;25.67;27.04;96751.09;5135430;27;20051;-62
2023/09/29 07:05:21;;;;;;;6.82;3.90;;;;;;;25.53;27.57;96749.72;5135554;27;20054;-62
2023/09/29 07:07:49;;;;;;;10.43;4.03;;;;;;;25.59;27.92;96762.50;5135572;27;20043;-62
2023/09/29 07:10:18;;;;;;;18.60;3.50;;;;;;;25.82;28.27;96762.97;5135438;27;20039;-61
2023/09/29 07:12:45;;;;;;;7.45;3.10;;;;;;;25.51;27.70;96763.25;5135450;27;20453;-61
2023/09/29 07:15:13;;;;;;;12.40;3.22;;;;;;;25.16;28.78;96770.13;5135456;27;20485;-61
2023/09/29 07:17:41;;;;;;;9.65;2.90;;;;;;;25.03;29.15;96762.41;5135332;27;20569;-61
2023/09/29 07:20:09;;;;;;;12.48;3.22;;;;;;;25.39;28.94;96767.09;5135443;27;20043;-61
2023/09/29 07:22:36;;;;;;;12.40;3.17;;;;;;;25.55;28.80;96769.16;5134395;27;20043;-61
2023/09/29 07:25:05;;;;;;;10.18;3.10;;;;;;;25.20;28.75;96775.03;5135265;27;20118;-62
2023/09/29 07:27:35;;;;;;;8.73;3.33;;;;;;;24.56;29.74;96775.53;5135125;27;20043;-62
2023/09/29 07:30:03;;;;;;;19.90;3.10;;;;;;;23.94;31.70;96771.22;5135160;27;20051;-61
2023/09/29 07:32:31;;;;;;;11.18;3.08;;;;;;;23.38;32.69;96783.25;5135015;27;20462;-61
2023/09/29 07:34:58;;;;;;;7.88;3.05;;;;;;;22.82;33.56;96778.13;5135056;27;20126;-61
2023/09/29 07:37:25;;;;;;;7.97;2.80;;;;;;;22.62;34.70;96775.31;5135063;27;20071;-61
2023/09/29 07:39:52;;;;;;;8.45;3.10;;;;;;;22.48;35.11;96784.41;5134912;27;20043;-61
2023/09/29 07:42:19;;;;;;;13.38;3.20;;;;;;;22.40;35.76;96778.91;5134710;27;20512;-61
2023/09/29 07:44:48;;;;;;;15.38;3.13;;;;;;;22.90;35.17;96772.16;5134776;27;20046;-61
2023/09/29 07:47:15;;;;;;;14.00;2.58;;;;;;;22.88;35.66;96787.44;5134720;27;20126;-62
2023/09/29 07:49:42;;;;;;;12.68;2.67;;;;;;;22.75;36.21;96782.28;5134795;27;20050;-61
2023/09/29 07:52:09;;;;;;;17.63;3.53;;;;;;;23.18;35.53;96783.94;5134717;27;20071;-61
2023/09/29 07:54:36;;;;;;;15.05;3.55;;;;;;;23.47;35.63;96785.09;5134583;27;20495;-61
2023/09/29 07:57:04;;;;;;;15.57;3.25;;;;;;;23.48;35.97;96782.31;5134611;27;20059;-61
2023/09/29 07:59:31;;;;;;;14.43;3.05;;;;;;;23.83;36.04;96774.00;5134536;27;20130;-61
2023/09/29 08:01:59;;;;;;;6.53;2.88;;;;;;;24.03;35.05;96777.56;5134242;27;20500;-61
2023/09/29 08:04:27;;;;;;;12.82;3.15;;;;;;;23.62;36.20;96774.91;5134645;27;20134;-61
2023/09/29 08:06:54;;;;;;;9.30;2.90;;;;;;;23.95;36.60;96772.06;5134419;27;20096;-61
2023/09/29 08:09:21;;;;;;;17.23;2.90;;;;;;;24.08;35.97;96785.19;5134315;27;20047;-61
2023/09/29 08:11:48;;;;;;;10.63;2.60;;;;;;;24.19;36.17;96782.41;5134333;27;20481;-61
2023/09/29 08:14:16;;;;;;;14.63;3.60;;;;;;;24.53;37.27;96791.84;5134421;27;20100;-61
2023/09/29 08:16:43;;;;;;;7.93;3.08;;;;;;;24.61;35.65;96785.78;5134358;27;20050;-62
2023/09/29 08:19:12;;;;;;;8.65;2.63;;;;;;;24.71;36.04;96780.47;5134418;27;20047;-62
2023/09/29 08:21:39;;;;;;;10.45;3.08;;;;;;;24.82;36.60;96790.16;5134232;27;20043;-61
2023/09/29 08:24:07;;;;;;;13.63;3.75;;;;;;;24.55;36.58;96789.03;5134232;27;20050;-61
2023/09/29 08:26:34;;;;;;;13.82;2.92;;;;;;;24.72;37.78;96788.31;5134167;27;20043;-61
2023/09/29 08:29:03;;;;;;;9.52;2.75;;;;;;;24.66;36.59;96801.41;5134192;27;20496;-61
2023/09/29 08:31:30;;;;;;;16.73;3.35;;;;;;;24.54;37.64;96784.69;5134141;27;20051;-61
2023/09/29 08:33:57;;;;;;;17.33;3.55;;;;;;;24.47;37.39;96785.22;5133953;27;20039;-62
2023/09/29 08:36:26;;;;;;;14.30;3.20;;;;;;;24.78;38.05;96791.41;5134031;27;20083;-61
2023/09/29 08:38:53;;;;;;;14.15;3.50;;;;;;;24.90;37.76;96795.69;5134081;27;20050;-61
2023/09/29 08:41:26;;;;;;;12.65;3.40;;;;;;;24.88;37.67;96802.13;5133883;28;20047;-61
2023/09/29 08:43:53;;;;;;;23.00;3.40;;;;;;;24.26;38.80;96819.25;5134019;28;20489;-61
2023/09/29 08:46:21;;;;;;;20.50;4.00;;;;;;;24.21;39.28;96787.59;5133981;28;20047;-61
2023/09/29 08:48:49;;;;;;;14.93;4.28;;;;;;;24.45;39.63;96792.56;5133954;28;20047;-61
2023/09/29 08:51:19;;;;;;;14.23;3.72;;;;;;;24.39;39.44;96795.78;5133946;28;20051;-61
2023/09/29 08:53:50;;;;;;;8.60;3.30;;;;;;;24.13;40.14;96796.31;5134198;28;20043;-61
2023/09/29 08:56:18;;;;;;;8.93;3.75;;;;;;;24.01;39.81;96800.03;5133948;28;20044;-61
2023/09/29 08:58:47;;;;;;;21.95;3.88;;;;;;;23.92;40.67;96791.03;5133859;28;20058;-61
2023/09/29 09:01:14;;;;;;;12.68;3.58;;;;;;;24.45;40.10;96802.41;5133878;28;20051;-61
2023/09/29 09:03:42;;;;;;;11.75;3.63;;;;;;;24.51;39.79;96811.69;5133492;28;20135;-61
2023/09/29 09:06:22;;;;;;;9.77;3.30;;;;;;;24.29;40.42;96805.63;5133873;27;20043;-61
2023/09/29 09:08:52;;;;;;;14.00;3.35;;;;;;;24.48;40.19;96818.16;5133899;28;20122;-61
2023/09/29 09:11:19;;;;;;;17.93;3.27;;;;;;;24.00;40.84;96819.72;5133902;28;20047;-61
2023/09/29 09:13:58;;;;;;;12.27;3.47;;;;;;;24.14;40.75;96816.69;5133622;28;20654;-61
2023/09/29 09:16:27;;;;;;;11.10;3.33;;;;;;;24.28;40.45;96818.13;5133732;28;20088;-62
2023/09/29 09:18:54;;;;;;;12.40;3.55;;;;;;;24.08;40.95;96807.38;5133691;28;20055;-61
2023/09/29 09:21:32;;;;;;;16.35;3.80;;;;;;;23.96;41.30;96808.50;5133613;28;20130;-61
2023/09/29 09:24:01;;;;;;;14.07;3.67;;;;;;;23.91;41.41;96816.91;5133635;27;20051;-61
2023/09/29 09:26:30;;;;;;;11.82;3.67;;;;;;;24.06;41.94;96819.19;5133593;28;20047;-61
2023/09/29 09:29:08;;;;;;;10.80;3.70;;;;;;;24.08;41.22;96811.88;5133644;27;20051;-61
2023/09/29 09:31:45;;;;;;;14.60;3.58;;;;;;;23.93;41.31;96804.25;5133548;27;20133;-61
2023/09/29 09:34:13;;;;;;;8.52;3.00;;;;;;;23.94;41.59;96811.28;5133463;28;20078;-61
2023/09/29 09:36:51;;;;;;;10.18;3.38;;;;;;;23.97;41.85;96808.34;5133411;28;20374;-61
2023/09/29 09:39:25;;;;;;;10.88;3.50;;;;;;;24.14;41.25;96808.69;5133462;28;20039;-61
2023/09/29 09:41:54;;;;;;;9.63;3.22;;;;;;;24.39;40.78;96813.66;5133445;28;20043;-61
2023/09/29 09:44:22;;;;;;;8.82;3.30;;;;;;;24.57;40.25;96800.44;5133595;28;20078;-61
2023/09/29 09:46:55;;;;;;;13.85;4.05;;;;;;;24.52;40.67;96808.88;5135837;27;20115;-61
2023/09/29 09:49:29;;;;;;;10.05;3.15;;;;;;;24.33;40.83;96807.03;5137118;27;20043;-61
2023/09/29 09:52:03;;;;;;;9.85;3.03;;;;;;;24.32;40.62;96803.50;5137023;27;20043;-61
2023/09/29 09:54:36;;;;;;;10.98;3.70;;;;;;;24.29;40.66;96797.63;5136997;27;20047;-61
2023/09/29 09:57:08;;;;;;;18.13;4.28;;;;;;;24.09;40.77;96797.53;5136962;27;20074;-61
2023/09/29 09:59:36;;;;;;;14.15;3.72;;;;;;;24.19;41.05;96793.09;5136913;27;20069;-61
2023/09/29 10:02:06;;;;;;;11.82;3.33;;;;;;;24.35;40.07;96789.88;5136546;27;20057;-61
2023/09/29 10:04:38;;;;;;;11.88;3.47;;;;;;;24.48;40.03;96791.44;5136865;27;20096;-61
2023/09/29 10:07:06;;;;;;;18.17;3.50;;;;;;;24.47;39.75;96795.09;5136812;27;20496;-61
2023/09/29 10:09:46;;;;;;;10.18;3.25;;;;;;;24.58;40.07;96788.75;5136729;27;20050;-61
2023/09/29 10:12:24;;;;;;;10.35;3.00;;;;;;;24.76;39.57;96788.88;5136684;27;20051;-62
2023/09/29 10:14:52;;;;;;;10.27;2.95;;;;;;;25.03;38.73;96800.72;5136691;27;20176;-61
2023/09/29 10:17:20;;;;;;;13.85;3.78;;;;;;;25.05;38.45;96792.53;5136615;27;20078;-61
2023/09/29 10:19:50;;;;;;;7.60;2.75;;;;;;;24.82;38.54;96790.16;5136434;27;20503;-61
2023/09/29 10:22:28;;;;;;;;;;;;;;;25.01;38.22;96793.81;5136805;27;20047;-61
2023/09/29 10:24:59;;;;;;;9.55;3.03;;;;;;;25.03;38.24;96789.16;5136742;27;20261;-61
2023/09/29 10:27:32;;;;;;;9.68;2.83;;;;;;;24.98;38.50;96778.88;5136567;27;20043;-61
2023/09/29 10:30:17;;;;;;;11.00;3.50;;;;;;;25.23;38.16;96774.75;5136411;27;20070;-61
2023/09/29 10:32:48;;;;;;;8.70;3.22;;;;;;;25.41;37.06;96770.47;5136319;27;20043;-61
2023/09/29 10:35:20;;;;;;;9.93;3.45;;;;;;;25.28;36.92;96776.16;5136299;27;20105;-61
2023/09/29 10:37:54;;;;;;;7.78;2.63;;;;;;;25.38;37.69;96760.91;5136234;27;20104;-61
2023/09/29 10:40:31;;;;;;;12.20;3.15;;;;;;;25.71;37.51;96764.00;5136073;27;20054;-61
2023/09/29 10:43:02;;;;;;;10.95;2.92;;;;;;;25.77;36.31;96757.25;5136192;27;20051;-61
2023/09/29 10:45:31;;;;;;;16.67;3.92;;;;;;;25.40;36.89;96763.44;5136062;27;20492;-61
2023/09/29 10:48:02;;;;;;;13.13;3.05;;;;;;;25.56;36.57;96750.28;5136182;27;20043;-61
2023/09/29 10:50:29;;;;;;;6.57;3.10;;;;;;;25.75;36.19;96745.81;5135936;27;20039;-61
2023/09/29 10:52:57;;;;;;;8.95;3.13;;;;;;;25.70;36.19;96751.63;5135983;27;20047;-61
2023/09/29 10:55:25;;;;;;;8.32;2.90;;;;;;;25.51;36.66;96741.81;5135826;27;20039;-61
2023/09/29 10:57:52;;;;;;;8.40;2.83;;;;;;;25.61;36.42;96742.66;5135687;27;20442;-61
2023/09/29 11:00:20;;;;;;;13.93;3.38;;;;;;;25.73;36.14;96758.50;5135766;27;20495;-61
2023/09/29 11:02:49;;;;;;;10.20;3.03;;;;;;;25.68;34.79;96752.78;5135364;27;20051;-61
2023/09/29 11:05:17;;;;;;;10.38;3.33;;;;;;;25.66;35.10;96747.56;5135575;27;20130;-61
2023/09/29 11:07:47;;;;;;;12.18;2.97;;;;;;;25.79;35.56;96747.22;5135596;27;20047;-61
2023/09/29 11:10:15;;;;;;;9.37;3.00;;;;;;;25.65;35.39;96751.25;5135601;27;20082;-61
2023/09/29 11:12:45;;;;;;;10.70;2.70;;;;;;;25.77;35.49;96746.53;5135422;27;20283;-61
2023/09/29 11:15:13;;;;;;;11.00;3.50;;;;;;;25.76;34.75;96742.16;5135402;27;20043;-61
2023/09/29 11:17:46;;;;;;;11.98;3.03;;;;;;;25.82;34.71;96738.88;5135522;27;20051;-61
2023/09/29 11:20:25;;;;;;;5.93;2.90;;;;;;;25.94;34.67;96742.19;5135386;27;20122;-61
2023/09/29 11:23:06;;;;;;;8.15;2.65;;;;;;;25.72;34.48;96730.91;5135123;27;20557;-61
2023/09/29 11:25:44;;;;;;;10.57;2.60;;;;;;;25.84;34.80;96728.88;5135372;27;20043;-61
2023/09/29 11:28:14;;;;;;;10.30;2.80;;;;;;;25.70;34.56;96732.88;5135190;27;20449;-61
2023/09/29 11:30:41;;;;;;;11.40;2.85;;;;;;;25.75;35.20;96721.72;5135135;27;20039;-61
2023/09/29 11:33:10;;;;;;;10.68;2.92;;;;;;;25.81;34.53;96733.66;5135012;27;20493;-61
2023/09/29 11:35:39;;;;;;;10.60;3.15;;;;;;;25.88;34.54;96725.88;5135009;27;20039;-61